createdAt,value
2022-09-28T00:02:13.723Z,4.38
2022-09-28T00:04:40.709Z,4.20
2022-09-28T00:07:07.200Z,4.18
2022-09-28T00:09:34.147Z,4.05
2022-09-28T00:12:01.440Z,4.70
2022-09-28T00:14:28.568Z,4.00
2022-09-28T00:16:55.106Z,4.00
2022-09-28T00:19:22.008Z,5.00
2022-09-28T00:21:48.546Z,4.30
2022-09-28T00:24:16.039Z,4.35
2022-09-28T00:26:57.323Z,4.53
2022-09-28T00:29:34.116Z,4.38
2022-09-28T00:32:10.200Z,4.05
2022-09-28T00:34:40.975Z,4.80
2022-09-28T00:37:08.826Z,4.70
2022-09-28T00:39:38.501Z,4.55
2022-09-28T00:42:22.389Z,4.75
2022-09-28T00:44:56.535Z,4.75
2022-09-28T00:47:51.205Z,4.68
2022-09-28T00:50:26.057Z,4.63
2022-09-28T00:53:05.236Z,4.32
2022-09-28T00:55:41.664Z,4.70
2022-09-28T00:58:11.990Z,5.00
2022-09-28T01:00:41.282Z,5.55
2022-09-28T01:03:09.464Z,5.50
2022-09-28T01:05:38.644Z,4.78
2022-09-28T01:08:05.755Z,4.53
2022-09-28T01:10:33.204Z,4.95
2022-09-28T01:13:00.214Z,4.70
2022-09-28T01:15:29.341Z,5.25
2022-09-28T01:18:35.990Z,5.07
2022-09-28T01:22:04.599Z,5.07
2022-09-28T01:24:47.947Z,5.63
2022-09-28T01:27:48.033Z,5.20
2022-09-28T01:30:20.392Z,6.32
2022-09-28T01:32:55.703Z,5.97
2022-09-28T01:35:37.743Z,6.70
2022-09-28T01:38:34.179Z,6.25
2022-09-28T01:41:01.567Z,6.50
2022-09-28T01:43:30.138Z,6.75
2022-09-28T01:46:29.324Z,7.13
2022-09-28T01:49:04.982Z,6.88
2022-09-28T01:51:50.583Z,7.20
2022-09-28T01:54:42.190Z,6.75
2022-09-28T01:57:22.259Z,8.00
2022-09-28T01:59:58.370Z,7.03
2022-09-28T02:02:32.808Z,6.57
2022-09-28T02:05:11.006Z,7.60
2022-09-28T02:08:05.838Z,7.15
2022-09-28T02:10:42.707Z,7.75
2022-09-28T02:13:20.753Z,7.25
2022-09-28T02:16:31.640Z,7.38
2022-09-28T02:18:58.975Z,7.35
2022-09-28T02:21:37.516Z,7.22
2022-09-28T02:24:10.206Z,7.15
2022-09-28T02:26:42.860Z,6.63
2022-09-28T02:29:09.822Z,7.78
2022-09-28T02:31:36.918Z,7.80
2022-09-28T02:34:03.582Z,7.15
2022-09-28T02:36:30.846Z,7.53
2022-09-28T02:38:58.729Z,7.13
2022-09-28T02:41:54.556Z,6.63
2022-09-28T02:44:45.900Z,6.03
2022-09-28T02:47:12.748Z,7.60
2022-09-28T02:49:56.472Z,7.53
2022-09-28T02:52:44.700Z,7.55
2022-09-28T02:55:11.550Z,7.63
2022-09-28T02:58:06.872Z,8.25
2022-09-28T03:00:49.796Z,8.68
2022-09-28T03:03:32.187Z,8.02
2022-09-28T03:06:23.538Z,7.43
2022-09-28T03:08:59.096Z,8.30
2022-09-28T03:11:32.277Z,7.45
2022-09-28T03:13:59.643Z,7.65
2022-09-28T03:16:27.852Z,7.65
2022-09-28T03:18:54.417Z,7.28
2022-09-28T03:21:21.343Z,8.43
2022-09-28T03:23:47.947Z,7.82
2022-09-28T03:26:17.089Z,7.78
2022-09-28T03:28:43.614Z,8.18
2022-09-28T03:31:10.671Z,8.88
2022-09-28T03:33:37.214Z,9.05
2022-09-28T03:36:04.199Z,8.60
2022-09-28T03:38:31.144Z,9.75
2022-09-28T03:41:00.356Z,8.88
2022-09-28T03:43:29.521Z,10.43
2022-09-28T03:45:59.795Z,10.40
2022-09-28T03:48:32.923Z,9.75
2022-09-28T03:51:07.198Z,10.38
2022-09-28T03:53:33.815Z,9.63
2022-09-28T03:56:18.934Z,10.40
2022-09-28T03:58:45.450Z,12.40
2022-09-28T04:01:17.374Z,12.27
2022-09-28T04:03:45.030Z,13.18
2022-09-28T04:06:12.382Z,13.23
2022-09-28T04:08:39.428Z,13.95
2022-09-28T04:11:06.495Z,13.20
2022-09-28T04:13:33.442Z,13.50
2022-09-28T04:16:01.827Z,14.20
2022-09-28T04:18:29.118Z,14.68
2022-09-28T04:21:04.872Z,15.02
2022-09-28T04:23:31.417Z,16.52
2022-09-28T04:25:58.762Z,15.13
2022-09-28T04:28:43.965Z,18.05
2022-09-28T04:31:12.635Z,15.35
2022-09-28T04:33:39.573Z,16.10
2022-09-28T04:36:06.700Z,17.73
2022-09-28T04:38:51.900Z,16.63
2022-09-28T04:41:20.345Z,16.35
2022-09-28T04:43:47.913Z,18.92
2022-09-28T04:46:14.911Z,18.33
2022-09-28T04:48:41.898Z,16.63
2022-09-28T04:51:08.393Z,18.00
2022-09-28T04:53:35.486Z,17.73
2022-09-28T04:56:13.187Z,17.58
2022-09-28T04:58:40.762Z,17.88
2022-09-28T05:01:10.548Z,17.58
2022-09-28T05:03:38.220Z,18.20
2022-09-28T05:06:06.780Z,16.20
2022-09-28T05:08:35.454Z,18.42
2022-09-28T05:11:04.680Z,17.08
2022-09-28T05:13:32.720Z,17.05
2022-09-28T05:16:05.063Z,16.50
2022-09-28T05:18:32.214Z,16.17
2022-09-28T05:20:59.178Z,17.25
2022-09-28T05:23:25.693Z,19.02
2022-09-28T05:25:52.667Z,18.35
2022-09-28T05:28:29.179Z,18.27
2022-09-28T05:31:03.119Z,17.83
2022-09-28T05:33:31.767Z,18.92
2022-09-28T05:36:01.296Z,17.27
2022-09-28T05:38:29.199Z,16.60
2022-09-28T05:40:56.312Z,16.38
2022-09-28T05:43:23.339Z,16.95
2022-09-28T05:45:54.511Z,17.02
2022-09-28T05:48:23.154Z,15.35
2022-09-28T05:50:52.969Z,13.77
2022-09-28T05:53:20.529Z,14.55
2022-09-28T05:55:47.505Z,13.98
2022-09-28T05:58:14.921Z,15.13
2022-09-28T06:00:41.600Z,14.40
2022-09-28T06:03:11.937Z,15.50
2022-09-28T06:05:41.884Z,14.82
2022-09-28T06:08:12.670Z,15.05
2022-09-28T06:10:40.093Z,13.80
2022-09-28T06:13:07.785Z,12.20
2022-09-28T06:15:36.287Z,13.82
2022-09-28T06:18:05.918Z,13.30
2022-09-28T06:20:37.696Z,12.82
2022-09-28T06:23:05.123Z,12.63
2022-09-28T06:25:32.641Z,13.85
2022-09-28T06:28:01.691Z,12.18
2022-09-28T06:30:30.728Z,13.02
2022-09-28T06:32:59.584Z,12.82
2022-09-28T06:35:27.870Z,13.15
2022-09-28T06:37:54.377Z,13.02
2022-09-28T06:40:22.189Z,14.20
2022-09-28T06:43:09.880Z,15.43
2022-09-28T06:45:37.660Z,15.70
2022-09-28T06:48:05.191Z,15.57
2022-09-28T06:50:37.687Z,15.23
2022-09-28T06:53:06.842Z,14.02
2022-09-28T06:55:33.362Z,14.15
2022-09-28T06:58:06.014Z,13.93
2022-09-28T07:00:35.220Z,12.73
2022-09-28T07:03:03.097Z,15.25
2022-09-28T07:05:30.005Z,14.32
2022-09-28T07:07:57.717Z,15.40
2022-09-28T07:10:29.908Z,13.82
2022-09-28T07:12:57.792Z,14.35
2022-09-28T07:15:25.024Z,14.57
2022-09-28T07:18:02.741Z,12.40
2022-09-28T07:20:31.012Z,14.00
2022-09-28T07:23:10.979Z,11.60
2022-09-28T07:25:45.294Z,13.48
2022-09-28T07:28:12.786Z,12.40
2022-09-28T07:30:39.747Z,12.60
2022-09-28T07:33:08.213Z,13.75
2022-09-28T07:35:34.785Z,12.30
2022-09-28T07:38:04.120Z,12.13
2022-09-28T07:40:50.773Z,12.82
2022-09-28T07:43:20.591Z,11.25
2022-09-28T07:45:52.883Z,12.18
2022-09-28T07:48:20.538Z,12.57
2022-09-28T07:50:52.567Z,11.68
2022-09-28T07:53:20.810Z,13.15
2022-09-28T07:55:55.488Z,13.13
2022-09-28T07:58:22.562Z,11.65
2022-09-28T08:00:50.719Z,12.07
2022-09-28T08:03:19.186Z,12.48
2022-09-28T08:05:47.118Z,10.75
2022-09-28T08:08:14.547Z,12.27
2022-09-28T08:10:47.176Z,10.70
2022-09-28T08:13:14.979Z,11.73
2022-09-28T08:15:42.387Z,11.80
2022-09-28T08:18:09.194Z,11.75
2022-09-28T08:20:54.639Z,12.63
2022-09-28T08:23:21.658Z,12.23
2022-09-28T08:25:51.292Z,12.10
2022-09-28T08:28:18.158Z,14.40
2022-09-28T08:30:45.711Z,13.60
2022-09-28T08:33:13.950Z,16.58
2022-09-28T08:35:41.681Z,20.65
2022-09-28T08:38:08.910Z,15.27
2022-09-28T08:40:51.970Z,12.38
2022-09-28T08:43:29.386Z,12.02
2022-09-28T08:45:58.638Z,10.73
2022-09-28T08:48:56.924Z,10.98
2022-09-28T08:51:36.090Z,10.45
2022-09-28T08:54:23.560Z,14.98
2022-09-28T08:56:55.139Z,13.43
2022-09-28T08:59:31.231Z,10.65
2022-09-28T09:02:04.388Z,9.95
2022-09-28T09:04:33.363Z,11.05
2022-09-28T09:07:38.499Z,10.63
2022-09-28T09:10:13.858Z,8.15
2022-09-28T09:13:08.392Z,8.23
2022-09-28T09:16:09.337Z,7.38
2022-09-28T09:19:03.651Z,6.30
2022-09-28T09:21:41.581Z,6.20
2022-09-28T09:24:27.173Z,5.97
2022-09-28T09:27:23.085Z,5.32
2022-09-28T09:30:17.529Z,4.07
2022-09-28T09:33:10.004Z,4.88
2022-09-28T09:36:01.892Z,4.55
2022-09-28T09:38:49.100Z,4.68
2022-09-28T09:41:52.772Z,5.63
2022-09-28T09:44:52.959Z,4.75
2022-09-28T09:47:26.899Z,4.70
2022-09-28T09:50:29.678Z,3.95
2022-09-28T09:53:29.217Z,4.63
2022-09-28T09:55:59.707Z,5.22
2022-09-28T09:58:35.866Z,4.95
2022-09-28T10:01:13.091Z,5.35
2022-09-28T10:03:43.938Z,4.88
2022-09-28T10:06:27.331Z,5.22
2022-09-28T10:09:04.071Z,4.47
2022-09-28T10:11:42.650Z,4.28
2022-09-28T10:14:16.527Z,4.05
2022-09-28T10:16:47.965Z,4.40
2022-09-28T10:19:16.601Z,4.93
2022-09-28T10:21:45.102Z,4.10
2022-09-28T10:24:24.239Z,4.07
2022-09-28T10:26:55.235Z,3.90
2022-09-28T10:29:26.242Z,3.85
2022-09-28T10:31:54.691Z,4.40
2022-09-28T10:34:29.278Z,4.30
2022-09-28T10:37:10.076Z,4.88
2022-09-28T10:39:47.527Z,4.30
2022-09-28T10:42:30.034Z,4.70
2022-09-28T10:45:02.349Z,4.03
2022-09-28T10:47:32.535Z,4.72
2022-09-28T10:50:00.144Z,5.38
2022-09-28T10:52:40.661Z,5.53
2022-09-28T10:55:24.530Z,5.82
2022-09-28T10:57:51.071Z,4.72
2022-09-28T11:00:38.771Z,4.65
2022-09-28T11:03:06.115Z,5.40
2022-09-28T11:05:32.804Z,4.80
2022-09-28T11:08:04.439Z,4.97
2022-09-28T11:10:32.732Z,5.32
2022-09-28T11:13:00.262Z,4.50
2022-09-28T11:15:33.844Z,4.88
2022-09-28T11:18:26.245Z,4.50
2022-09-28T11:20:52.754Z,3.53
2022-09-28T11:23:30.324Z,3.80
2022-09-28T11:26:06.955Z,4.15
2022-09-28T11:28:36.961Z,3.65
2022-09-28T11:31:06.135Z,4.03
2022-09-28T11:33:34.973Z,4.63
2022-09-28T11:36:07.604Z,3.33
2022-09-28T11:38:59.176Z,3.97
2022-09-28T11:41:47.871Z,3.90
2022-09-28T11:44:32.461Z,4.15
2022-09-28T11:47:25.382Z,4.15
2022-09-28T11:50:28.271Z,3.50
2022-09-28T11:53:02.486Z,4.38
2022-09-28T11:55:47.079Z,3.53
2022-09-28T11:58:49.223Z,3.53
2022-09-28T12:01:36.023Z,3.58
2022-09-28T12:04:19.229Z,4.47
2022-09-28T12:06:53.750Z,3.40
2022-09-28T12:09:36.814Z,3.92
2022-09-28T12:12:12.411Z,3.58
2022-09-28T12:14:40.499Z,3.42
2022-09-28T12:17:20.640Z,4.45
2022-09-28T12:20:01.261Z,4.03
2022-09-28T12:22:49.868Z,3.25
2022-09-28T12:25:22.072Z,2.92
2022-09-28T12:27:54.891Z,2.70
2022-09-28T12:30:25.579Z,4.35
2022-09-28T12:33:01.772Z,3.80
2022-09-28T12:36:04.414Z,4.05
2022-09-28T12:39:08.471Z,4.53
2022-09-28T12:42:00.815Z,3.17
2022-09-28T12:44:47.217Z,4.00
2022-09-28T12:47:51.333Z,3.25
2022-09-28T12:50:39.298Z,2.88
2022-09-28T12:53:23.735Z,3.00
2022-09-28T12:55:58.875Z,3.00
2022-09-28T12:58:54.001Z,4.00
2022-09-28T13:01:50.230Z,3.17
2022-09-28T13:05:01.730Z,3.85
2022-09-28T13:07:44.423Z,3.33
2022-09-28T13:10:42.622Z,3.50
2022-09-28T13:13:31.252Z,4.93
2022-09-28T13:16:23.193Z,3.70
2022-09-28T13:19:19.744Z,3.80
2022-09-28T13:22:20.806Z,3.40
2022-09-28T13:24:48.700Z,3.25
2022-09-28T13:27:20.207Z,3.55
2022-09-28T13:29:50.144Z,3.80
2022-09-28T13:32:18.055Z,3.50
2022-09-28T13:34:49.002Z,3.47
2022-09-28T13:37:19.775Z,4.20
2022-09-28T13:39:48.744Z,4.00
2022-09-28T13:42:27.431Z,4.25
2022-09-28T13:45:23.718Z,4.90
2022-09-28T13:48:38.641Z,4.93
2022-09-28T13:51:20.130Z,5.00
2022-09-28T13:54:10.089Z,4.90
2022-09-28T13:56:49.835Z,5.43
2022-09-28T13:59:27.640Z,5.60
2022-09-28T14:02:09.618Z,5.70
2022-09-28T14:05:03.857Z,5.45
2022-09-28T14:07:36.091Z,5.32
2022-09-28T14:10:40.273Z,6.72
2022-09-28T14:13:09.159Z,6.00
2022-09-28T14:15:40.779Z,5.45
2022-09-28T14:18:26.579Z,5.90
2022-09-28T14:21:02.487Z,6.43
2022-09-28T14:23:47.567Z,6.03
2022-09-28T14:26:59.362Z,9.68
2022-09-28T14:29:28.852Z,9.75
2022-09-28T14:32:21.430Z,6.38
2022-09-28T14:34:56.424Z,7.05
2022-09-28T14:37:52.145Z,6.70
2022-09-28T14:41:13.572Z,6.32
2022-09-28T14:43:46.359Z,6.35
2022-09-28T14:46:17.193Z,6.28
2022-09-28T14:48:55.500Z,6.57
2022-09-28T14:51:26.487Z,6.30
2022-09-28T14:53:54.684Z,6.72
2022-09-28T14:56:22.670Z,7.25
2022-09-28T14:58:57.790Z,7.80
2022-09-28T15:01:26.395Z,7.60
2022-09-28T15:03:57.259Z,7.13
2022-09-28T15:06:25.233Z,8.07
2022-09-28T15:08:51.787Z,8.93
2022-09-28T15:11:23.174Z,7.80
2022-09-28T15:13:53.225Z,7.38
2022-09-28T15:16:24.305Z,7.85
2022-09-28T15:18:56.577Z,7.38
2022-09-28T15:21:31.628Z,6.82
2022-09-28T15:23:58.402Z,7.75
2022-09-28T15:26:31.242Z,6.65
2022-09-28T15:28:58.447Z,7.65
2022-09-28T15:31:28.434Z,6.55
2022-09-28T15:34:14.030Z,6.80
2022-09-28T15:36:42.788Z,6.97
2022-09-28T15:39:24.472Z,5.88
2022-09-28T15:41:51.868Z,6.63
2022-09-28T15:44:32.767Z,6.75
2022-09-28T15:47:14.155Z,6.40
2022-09-28T15:50:05.572Z,6.43
2022-09-28T15:52:37.384Z,5.70
2022-09-28T15:55:27.135Z,6.40
2022-09-28T15:58:12.469Z,5.90
2022-09-28T16:00:40.526Z,5.20
2022-09-28T16:03:07.023Z,5.95
2022-09-28T16:05:46.454Z,5.93
2022-09-28T16:08:33.288Z,5.53
2022-09-28T16:11:36.881Z,5.35
2022-09-28T16:14:24.327Z,5.18
2022-09-28T16:16:52.178Z,5.07
2022-09-28T16:19:32.318Z,4.65
2022-09-28T16:22:01.918Z,4.40
2022-09-28T16:24:31.750Z,4.90
2022-09-28T16:27:02.659Z,4.95
2022-09-28T16:29:41.142Z,5.75
2022-09-28T16:32:42.015Z,7.30
2022-09-28T16:35:19.423Z,7.20
2022-09-28T16:37:49.039Z,7.32
2022-09-28T16:40:15.668Z,8.10
2022-09-28T16:42:48.909Z,7.68
2022-09-28T16:45:26.355Z,7.53
2022-09-28T16:47:56.377Z,7.65
2022-09-28T16:50:24.252Z,7.97
2022-09-28T16:53:25.415Z,8.23
2022-09-28T16:55:51.910Z,8.25
2022-09-28T16:58:18.659Z,7.63
2022-09-28T17:00:46.032Z,7.57
2022-09-28T17:03:18.349Z,6.82
2022-09-28T17:05:46.598Z,7.00
2022-09-28T17:08:17.335Z,6.25
2022-09-28T17:11:13.084Z,5.93
2022-09-28T17:13:37.349Z,7.07
2022-09-28T17:16:09.192Z,7.25
2022-09-28T17:18:39.933Z,6.63
2022-09-28T17:21:16.091Z,5.82
2022-09-28T17:23:43.982Z,6.97
2022-09-28T17:26:22.039Z,7.43
2022-09-28T17:28:48.736Z,7.03
2022-09-28T17:31:16.372Z,7.18
2022-09-28T17:33:43.886Z,6.97
2022-09-28T17:36:14.300Z,6.68
2022-09-28T17:38:42.911Z,7.47
2022-09-28T17:41:20.219Z,5.68
2022-09-28T17:43:47.802Z,5.93
2022-09-28T17:46:33.115Z,6.15
2022-09-28T17:49:02.269Z,5.80
2022-09-28T17:51:30.220Z,7.18
2022-09-28T17:53:59.585Z,7.85
2022-09-28T17:56:31.694Z,8.45
2022-09-28T17:59:05.173Z,11.75
2022-09-28T18:01:38.619Z,15.18
2022-09-28T18:04:08.420Z,14.63
2022-09-28T18:06:36.891Z,16.50
2022-09-28T18:09:04.390Z,18.27
2022-09-28T18:11:32.564Z,20.38
2022-09-28T18:13:59.257Z,21.30
2022-09-28T18:16:28.171Z,21.38
2022-09-28T18:18:54.905Z,19.88
2022-09-28T18:21:21.878Z,20.30
2022-09-28T18:23:48.451Z,20.15
2022-09-28T18:26:17.058Z,21.25
2022-09-28T18:28:43.687Z,20.10
2022-09-28T18:31:11.982Z,16.95
2022-09-28T18:33:39.626Z,15.40
2022-09-28T18:36:07.731Z,15.25
2022-09-28T18:38:38.176Z,15.80
2022-09-28T18:41:16.154Z,15.73
2022-09-28T18:43:49.355Z,14.43
2022-09-28T18:46:18.036Z,14.88
2022-09-28T18:48:44.852Z,14.70
2022-09-28T18:51:12.739Z,13.95
2022-09-28T18:53:40.218Z,13.98
2022-09-28T18:56:08.519Z,14.00
2022-09-28T18:58:37.527Z,15.38
2022-09-28T19:01:29.602Z,13.27
2022-09-28T19:04:00.617Z,12.88
2022-09-28T19:06:28.005Z,12.75
2022-09-28T19:08:56.242Z,13.20
2022-09-28T19:11:23.902Z,11.27
2022-09-28T19:13:51.302Z,10.85
2022-09-28T19:16:23.877Z,10.60
2022-09-28T19:18:52.674Z,8.63
2022-09-28T19:21:20.075Z,10.80
2022-09-28T19:23:49.713Z,9.38
2022-09-28T19:26:23.656Z,9.57
2022-09-28T19:28:50.614Z,8.68
2022-09-28T19:31:18.239Z,8.85
2022-09-28T19:33:46.717Z,7.45
2022-09-28T19:36:18.123Z,7.10
2022-09-28T19:38:45.634Z,6.72
2022-09-28T19:41:39.384Z,6.57
2022-09-28T19:44:26.874Z,6.72
2022-09-28T19:47:06.576Z,6.43
2022-09-28T19:49:37.970Z,7.05
2022-09-28T19:52:15.637Z,6.40
2022-09-28T19:54:45.033Z,7.25
2022-09-28T19:57:14.308Z,7.18
2022-09-28T19:59:41.023Z,7.32
2022-09-28T20:02:08.834Z,7.10
2022-09-28T20:04:35.435Z,7.28
2022-09-28T20:07:02.551Z,6.75
2022-09-28T20:09:29.703Z,6.57
2022-09-28T20:11:56.866Z,7.25
2022-09-28T20:14:25.889Z,6.80
2022-09-28T20:16:54.821Z,6.82
2022-09-28T20:19:23.420Z,6.78
2022-09-28T20:21:50.755Z,7.38
2022-09-28T20:24:17.342Z,7.65
2022-09-28T20:26:46.125Z,6.93
2022-09-28T20:29:13.044Z,8.18
2022-09-28T20:31:40.280Z,8.05
2022-09-28T20:34:07.107Z,7.63
2022-09-28T20:36:34.728Z,8.07
2022-09-28T20:39:02.037Z,7.95
2022-09-28T20:41:35.856Z,7.13
2022-09-28T20:44:05.738Z,7.70
2022-09-28T20:46:36.776Z,7.45
2022-09-28T20:49:04.928Z,8.63
2022-09-28T20:51:31.978Z,8.20
2022-09-28T20:54:00.026Z,8.10
2022-09-28T20:56:37.378Z,7.57
2022-09-28T20:59:06.851Z,7.40
2022-09-28T21:01:33.497Z,7.57
2022-09-28T21:04:01.915Z,7.30
2022-09-28T21:06:31.102Z,8.48
2022-09-28T21:08:59.032Z,7.20
2022-09-28T21:11:27.390Z,7.68
2022-09-28T21:13:58.010Z,6.53
2022-09-28T21:16:25.190Z,7.25
2022-09-28T21:18:52.452Z,6.72
2022-09-28T21:21:20.992Z,6.90
2022-09-28T21:23:48.066Z,7.32
2022-09-28T21:26:24.695Z,6.35
2022-09-28T21:28:56.221Z,7.72
2022-09-28T21:31:28.439Z,7.25
2022-09-28T21:33:55.965Z,7.78
2022-09-28T21:36:22.920Z,7.10
2022-09-28T21:38:49.457Z,6.78
2022-09-28T21:41:16.647Z,6.93
2022-09-28T21:43:43.278Z,7.50
2022-09-28T21:46:10.676Z,6.85
2022-09-28T21:48:37.276Z,6.78
2022-09-28T21:51:06.451Z,6.78
2022-09-28T21:53:37.715Z,8.07
2022-09-28T21:56:07.152Z,7.32
2022-09-28T21:58:35.364Z,7.10
2022-09-28T22:01:03.492Z,7.70
2022-09-28T22:03:31.495Z,7.60
2022-09-28T22:05:58.341Z,7.47
2022-09-28T22:08:25.952Z,7.32
2022-09-28T22:11:03.851Z,7.53
2022-09-28T22:13:32.960Z,7.30
2022-09-28T22:16:00.210Z,7.85
2022-09-28T22:18:28.626Z,6.75
2022-09-28T22:21:27.076Z,6.82
2022-09-28T22:23:55.978Z,7.28
2022-09-28T22:26:25.419Z,7.07
2022-09-28T22:28:57.192Z,6.95
2022-09-28T22:31:31.983Z,7.00
2022-09-28T22:33:58.641Z,6.30
2022-09-28T22:36:25.758Z,6.78
2022-09-28T22:38:54.167Z,7.22
2022-09-28T22:41:20.881Z,7.22
2022-09-28T22:43:49.305Z,8.05
2022-09-28T22:46:27.891Z,6.88
2022-09-28T22:48:56.455Z,7.45
2022-09-28T22:51:26.118Z,6.97
2022-09-28T22:53:53.354Z,6.10
2022-09-28T22:56:19.990Z,6.50
2022-09-28T22:58:47.715Z,6.75
2022-09-28T23:01:17.022Z,6.07
2022-09-28T23:03:45.100Z,6.22
2022-09-28T23:06:14.848Z,6.38
2022-09-28T23:08:41.451Z,6.20
2022-09-28T23:11:09.106Z,5.80
2022-09-28T23:13:37.426Z,6.63
2022-09-28T23:16:07.642Z,6.40
2022-09-28T23:18:37.168Z,5.88
2022-09-28T23:21:06.100Z,7.50
2022-09-28T23:23:33.968Z,7.45
2022-09-28T23:26:12.795Z,7.35
2022-09-28T23:28:39.604Z,6.93
2022-09-28T23:31:18.958Z,7.18
2022-09-28T23:33:46.288Z,6.93
2022-09-28T23:36:13.778Z,7.10
2022-09-28T23:38:40.876Z,6.75
2022-09-28T23:41:08.238Z,6.47
2022-09-28T23:43:36.098Z,5.95
2022-09-28T23:46:04.954Z,6.05
2022-09-28T23:48:31.776Z,6.03
2022-09-28T23:50:58.768Z,6.63
2022-09-28T23:53:25.882Z,7.07
2022-09-28T23:55:52.747Z,7.00
2022-09-28T23:58:19.322Z,6.97
